sensor_id;sensor_type;location;lat;lon;timestamp;pressure;altitude;pressure_sealevel;temperature;humidity
55424;BME280;41294;42.666;23.350;2022-09-27T00:02:19;94131.09;;;16.64;100.00
55424;BME280;41294;42.666;23.350;2022-09-27T00:04:44;94122.94;;;16.56;100.00
55424;BME280;41294;42.666;23.350;2022-09-27T00:07:10;94136.38;;;16.69;100.00
55424;BME280;41294;42.666;23.350;2022-09-27T00:09:36;94129.53;;;16.79;100.00
55424;BME280;41294;42.666;23.350;2022-09-27T00:12:01;94110.97;;;16.74;100.00
55424;BME280;41294;42.666;23.350;2022-09-27T00:14:27;94116.25;;;16.79;100.00
55424;BME280;41294;42.666;23.350;2022-09-27T00:16:52;94121.75;;;16.81;100.00
55424;BME280;41294;42.666;23.350;2022-09-27T00:19:20;94124.16;;;16.85;100.00
55424;BME280;41294;42.666;23.350;2022-09-27T00:21:47;94128.97;;;16.86;100.00
55424;BME280;41294;42.666;23.350;2022-09-27T00:24:16;94143.44;;;16.61;100.00
55424;BME280;41294;42.666;23.350;2022-09-27T00:26:43;94142.91;;;16.68;100.00
55424;BME280;41294;42.666;23.350;2022-09-27T00:29:09;94140.00;;;16.66;100.00
55424;BME280;41294;42.666;23.350;2022-09-27T00:31:35;94138.03;;;16.72;100.00
55424;BME280;41294;42.666;23.350;2022-09-27T00:34:02;94141.38;;;16.78;100.00
55424;BME280;41294;42.666;23.350;2022-09-27T00:36:29;94134.84;;;16.79;100.00
55424;BME280;41294;42.666;23.350;2022-09-27T00:38:54;94126.44;;;16.70;100.00
55424;BME280;41294;42.666;23.350;2022-09-27T00:41:31;94125.88;;;16.82;100.00
55424;BME280;41294;42.666;23.350;2022-09-27T00:43:59;94120.13;;;16.78;100.00
55424;BME280;41294;42.666;23.350;2022-09-27T00:46:40;94108.78;;;16.72;100.00
55424;BME280;41294;42.666;23.350;2022-09-27T00:51:40;94118.63;;;16.53;100.00
55424;BME280;41294;42.666;23.350;2022-09-27T00:54:09;94118.94;;;16.45;100.00
55424;BME280;41294;42.666;23.350;2022-09-27T00:56:37;94114.88;;;15.92;100.00
55424;BME280;41294;42.666;23.350;2022-09-27T00:59:18;94123.09;;;15.89;100.00
55424;BME280;41294;42.666;23.350;2022-09-27T01:01:45;94132.22;;;15.99;100.00
55424;BME280;41294;42.666;23.350;2022-09-27T01:04:12;94116.59;;;15.90;100.00
55424;BME280;41294;42.666;23.350;2022-09-27T01:06:39;94097.91;;;15.66;100.00
55424;BME280;41294;42.666;23.350;2022-09-27T01:09:07;94110.88;;;15.75;100.00
55424;BME280;41294;42.666;23.350;2022-09-27T01:34:29;94093.31;;;15.61;100.00
55424;BME280;41294;42.666;23.350;2022-09-27T01:37:26;94088.56;;;15.49;100.00
55424;BME280;41294;42.666;23.350;2022-09-27T01:40:01;94110.41;;;15.71;100.00
55424;BME280;41294;42.666;23.350;2022-09-27T01:45:16;94084.75;;;15.90;100.00
55424;BME280;41294;42.666;23.350;2022-09-27T01:47:48;94094.59;;;15.95;100.00
55424;BME280;41294;42.666;23.350;2022-09-27T01:50:23;94090.66;;;16.07;100.00
55424;BME280;41294;42.666;23.350;2022-09-27T01:55:52;94092.28;;;16.15;100.00
55424;BME280;41294;42.666;23.350;2022-09-27T01:58:30;94101.53;;;16.09;100.00
55424;BME280;41294;42.666;23.350;2022-09-27T02:00:58;94096.25;;;16.03;100.00
55424;BME280;41294;42.666;23.350;2022-09-27T02:03:31;94084.81;;;16.14;100.00
55424;BME280;41294;42.666;23.350;2022-09-27T02:06:06;94090.13;;;16.14;100.00
55424;BME280;41294;42.666;23.350;2022-09-27T02:08:37;94081.81;;;16.28;100.00
55424;BME280;41294;42.666;23.350;2022-09-27T02:11:09;94068.03;;;15.49;100.00
55424;BME280;41294;42.666;23.350;2022-09-27T02:16:35;94068.63;;;15.77;100.00
55424;BME280;41294;42.666;23.350;2022-09-27T02:19:16;94071.75;;;15.81;100.00
55424;BME280;41294;42.666;23.350;2022-09-27T02:24:12;94044.97;;;15.33;100.00
55424;BME280;41294;42.666;23.350;2022-09-27T02:26:42;94038.53;;;15.18;100.00
55424;BME280;41294;42.666;23.350;2022-09-27T02:29:17;94050.72;;;15.43;100.00
55424;BME280;41294;42.666;23.350;2022-09-27T02:31:45;94037.50;;;15.37;100.00
55424;BME280;41294;42.666;23.350;2022-09-27T02:34:21;94012.25;;;15.14;100.00
55424;BME280;41294;42.666;23.350;2022-09-27T02:36:47;93992.09;;;14.84;100.00
55424;BME280;41294;42.666;23.350;2022-09-27T02:39:13;93981.97;;;14.99;100.00
55424;BME280;41294;42.666;23.350;2022-09-27T02:41:39;94000.91;;;15.19;100.00
55424;BME280;41294;42.666;23.350;2022-09-27T02:44:08;93991.25;;;15.16;100.00
55424;BME280;41294;42.666;23.350;2022-09-27T02:52:21;94020.25;;;15.60;100.00
55424;BME280;41294;42.666;23.350;2022-09-27T02:55:21;94010.50;;;15.73;100.00
55424;BME280;41294;42.666;23.350;2022-09-27T03:03:41;94043.91;;;15.93;100.00
55424;BME280;41294;42.666;23.350;2022-09-27T03:06:12;94010.66;;;15.92;100.00
55424;BME280;41294;42.666;23.350;2022-09-27T03:08:39;93985.94;;;15.73;100.00
55424;BME280;41294;42.666;23.350;2022-09-27T03:11:06;93984.72;;;15.74;100.00
55424;BME280;41294;42.666;23.350;2022-09-27T03:13:32;93974.72;;;15.85;100.00
55424;BME280;41294;42.666;23.350;2022-09-27T03:15:59;93967.03;;;15.82;100.00
55424;BME280;41294;42.666;23.350;2022-09-27T03:18:24;93965.19;;;15.31;100.00
55424;BME280;41294;42.666;23.350;2022-09-27T03:20:53;93955.50;;;15.39;100.00
55424;BME280;41294;42.666;23.350;2022-09-27T03:23:19;93962.19;;;15.51;100.00
55424;BME280;41294;42.666;23.350;2022-09-27T03:25:45;93937.81;;;15.53;100.00
55424;BME280;41294;42.666;23.350;2022-09-27T03:28:11;93950.59;;;15.54;100.00
55424;BME280;41294;42.666;23.350;2022-09-27T03:30:36;93968.41;;;15.59;100.00
55424;BME280;41294;42.666;23.350;2022-09-27T03:33:02;93950.72;;;15.67;100.00
55424;BME280;41294;42.666;23.350;2022-09-27T03:35:28;93950.41;;;15.76;100.00
55424;BME280;41294;42.666;23.350;2022-09-27T03:37:53;93959.28;;;15.84;100.00
55424;BME280;41294;42.666;23.350;2022-09-27T03:40:18;93951.78;;;15.88;100.00
55424;BME280;41294;42.666;23.350;2022-09-27T03:42:44;93957.56;;;15.92;100.00
55424;BME280;41294;42.666;23.350;2022-09-27T03:45:09;93955.41;;;15.85;100.00
55424;BME280;41294;42.666;23.350;2022-09-27T03:47:39;93940.63;;;15.95;100.00
55424;BME280;41294;42.666;23.350;2022-09-27T03:50:06;93945.50;;;15.91;100.00
55424;BME280;41294;42.666;23.350;2022-09-27T03:52:32;93942.72;;;16.02;100.00
55424;BME280;41294;42.666;23.350;2022-09-27T03:54:58;93950.25;;;15.98;100.00
55424;BME280;41294;42.666;23.350;2022-09-27T03:57:24;93963.56;;;15.92;100.00
55424;BME280;41294;42.666;23.350;2022-09-27T03:59:49;93962.88;;;15.92;100.00
55424;BME280;41294;42.666;23.350;2022-09-27T04:02:15;93960.69;;;15.90;100.00
55424;BME280;41294;42.666;23.350;2022-09-27T04:04:40;93958.91;;;16.04;100.00
55424;BME280;41294;42.666;23.350;2022-09-27T04:07:07;93963.53;;;15.98;100.00
55424;BME280;41294;42.666;23.350;2022-09-27T04:09:34;93953.53;;;16.09;100.00
55424;BME280;41294;42.666;23.350;2022-09-27T04:12:00;93951.63;;;16.10;100.00
55424;BME280;41294;42.666;23.350;2022-09-27T04:14:26;93954.19;;;16.15;100.00
55424;BME280;41294;42.666;23.350;2022-09-27T04:16:51;93955.31;;;16.01;100.00
55424;BME280;41294;42.666;23.350;2022-09-27T04:19:17;93952.06;;;16.14;100.00
55424;BME280;41294;42.666;23.350;2022-09-27T04:21:42;93943.34;;;16.19;100.00
55424;BME280;41294;42.666;23.350;2022-09-27T04:24:08;93935.47;;;16.08;100.00
55424;BME280;41294;42.666;23.350;2022-09-27T04:26:37;93937.66;;;16.04;100.00
55424;BME280;41294;42.666;23.350;2022-09-27T04:29:04;93943.81;;;16.17;100.00
55424;BME280;41294;42.666;23.350;2022-09-27T04:31:30;93948.38;;;16.22;100.00
55424;BME280;41294;42.666;23.350;2022-09-27T04:33:56;93944.53;;;16.18;100.00
55424;BME280;41294;42.666;23.350;2022-09-27T04:36:22;93959.91;;;16.30;100.00
55424;BME280;41294;42.666;23.350;2022-09-27T04:38:55;93950.75;;;15.96;100.00
55424;BME280;41294;42.666;23.350;2022-09-27T04:41:22;93945.31;;;16.13;100.00
55424;BME280;41294;42.666;23.350;2022-09-27T04:43:51;93946.38;;;16.28;100.00
55424;BME280;41294;42.666;23.350;2022-09-27T04:46:17;93931.28;;;16.18;100.00
55424;BME280;41294;42.666;23.350;2022-09-27T04:48:43;93943.53;;;16.21;100.00
55424;BME280;41294;42.666;23.350;2022-09-27T04:51:09;93969.63;;;16.22;100.00
55424;BME280;41294;42.666;23.350;2022-09-27T04:53:35;93974.75;;;16.15;100.00
55424;BME280;41294;42.666;23.350;2022-09-27T04:56:01;93975.34;;;16.26;100.00
55424;BME280;41294;42.666;23.350;2022-09-27T04:58:30;93965.66;;;16.29;100.00
55424;BME280;41294;42.666;23.350;2022-09-27T05:00:58;93975.91;;;16.19;100.00
55424;BME280;41294;42.666;23.350;2022-09-27T05:03:24;93968.97;;;16.11;100.00
55424;BME280;41294;42.666;23.350;2022-09-27T05:05:50;93968.06;;;16.03;100.00
55424;BME280;41294;42.666;23.350;2022-09-27T05:08:16;93963.94;;;16.07;100.00
55424;BME280;41294;42.666;23.350;2022-09-27T05:10:41;93937.28;;;16.18;100.00
55424;BME280;41294;42.666;23.350;2022-09-27T05:13:07;93951.13;;;16.11;100.00
55424;BME280;41294;42.666;23.350;2022-09-27T05:15:32;93950.69;;;16.02;100.00
55424;BME280;41294;42.666;23.350;2022-09-27T05:17:58;93939.56;;;16.09;100.00
55424;BME280;41294;42.666;23.350;2022-09-27T05:20:24;93930.47;;;16.23;100.00
55424;BME280;41294;42.666;23.350;2022-09-27T05:22:50;93942.28;;;16.27;100.00
55424;BME280;41294;42.666;23.350;2022-09-27T05:25:16;93937.22;;;16.00;100.00
55424;BME280;41294;42.666;23.350;2022-09-27T05:27:42;93953.16;;;16.00;100.00
55424;BME280;41294;42.666;23.350;2022-09-27T05:30:08;93953.31;;;16.07;100.00
55424;BME280;41294;42.666;23.350;2022-09-27T05:32:34;93941.09;;;15.99;100.00
55424;BME280;41294;42.666;23.350;2022-09-27T05:35:00;93923.88;;;15.76;100.00
55424;BME280;41294;42.666;23.350;2022-09-27T05:37:25;93920.78;;;15.72;100.00
55424;BME280;41294;42.666;23.350;2022-09-27T05:39:51;93955.66;;;15.87;100.00
55424;BME280;41294;42.666;23.350;2022-09-27T05:42:16;93943.06;;;15.93;100.00
55424;BME280;41294;42.666;23.350;2022-09-27T05:44:43;93942.63;;;15.89;100.00
55424;BME280;41294;42.666;23.350;2022-09-27T05:47:13;93956.25;;;16.04;100.00
55424;BME280;41294;42.666;23.350;2022-09-27T05:49:40;93956.78;;;15.97;100.00
55424;BME280;41294;42.666;23.350;2022-09-27T05:52:06;93951.94;;;16.01;100.00
55424;BME280;41294;42.666;23.350;2022-09-27T05:54:31;93951.72;;;15.99;100.00
55424;BME280;41294;42.666;23.350;2022-09-27T05:56:58;93952.09;;;16.08;100.00
55424;BME280;41294;42.666;23.350;2022-09-27T05:59:25;93944.06;;;15.90;100.00
55424;BME280;41294;42.666;23.350;2022-09-27T06:01:51;93939.81;;;15.76;100.00
55424;BME280;41294;42.666;23.350;2022-09-27T06:04:17;93946.97;;;15.86;100.00
55424;BME280;41294;42.666;23.350;2022-09-27T06:06:43;93953.09;;;16.05;100.00
55424;BME280;41294;42.666;23.350;2022-09-27T06:09:12;93942.66;;;16.13;100.00
55424;BME280;41294;42.666;23.350;2022-09-27T06:11:38;93946.50;;;16.12;100.00
55424;BME280;41294;42.666;23.350;2022-09-27T06:14:04;93946.66;;;16.25;100.00
55424;BME280;41294;42.666;23.350;2022-09-27T06:16:29;93945.41;;;16.31;100.00
55424;BME280;41294;42.666;23.350;2022-09-27T06:18:55;93951.09;;;16.41;100.00
55424;BME280;41294;42.666;23.350;2022-09-27T06:21:22;93941.81;;;16.52;100.00
55424;BME280;41294;42.666;23.350;2022-09-27T06:23:47;93915.44;;;16.54;100.00
55424;BME280;41294;42.666;23.350;2022-09-27T06:26:13;93942.47;;;16.58;100.00
55424;BME280;41294;42.666;23.350;2022-09-27T06:28:39;93944.34;;;16.63;100.00
55424;BME280;41294;42.666;23.350;2022-09-27T06:31:05;93943.00;;;16.75;100.00
55424;BME280;41294;42.666;23.350;2022-09-27T06:33:33;93943.94;;;16.78;100.00
55424;BME280;41294;42.666;23.350;2022-09-27T06:36:03;93938.09;;;16.61;100.00
55424;BME280;41294;42.666;23.350;2022-09-27T06:38:29;93923.53;;;16.67;100.00
55424;BME280;41294;42.666;23.350;2022-09-27T06:40:55;93933.38;;;16.72;100.00
55424;BME280;41294;42.666;23.350;2022-09-27T06:43:22;93954.63;;;16.72;100.00
55424;BME280;41294;42.666;23.350;2022-09-27T06:45:48;93944.44;;;16.76;100.00
55424;BME280;41294;42.666;23.350;2022-09-27T06:48:15;93943.56;;;16.68;100.00
55424;BME280;41294;42.666;23.350;2022-09-27T06:50:43;93950.31;;;16.46;100.00
55424;BME280;41294;42.666;23.350;2022-09-27T06:53:10;93948.91;;;16.45;100.00
55424;BME280;41294;42.666;23.350;2022-09-27T06:55:36;93944.00;;;16.72;100.00
55424;BME280;41294;42.666;23.350;2022-09-27T06:58:02;93937.00;;;16.22;100.00
55424;BME280;41294;42.666;23.350;2022-09-27T07:00:52;93942.44;;;16.40;100.00
55424;BME280;41294;42.666;23.350;2022-09-27T07:03:22;93941.44;;;16.14;100.00
55424;BME280;41294;42.666;23.350;2022-09-27T07:05:55;93939.06;;;16.10;100.00
55424;BME280;41294;42.666;23.350;2022-09-27T07:08:21;93950.97;;;16.28;100.00
55424;BME280;41294;42.666;23.350;2022-09-27T07:10:47;93951.06;;;16.46;100.00
55424;BME280;41294;42.666;23.350;2022-09-27T07:13:14;93949.06;;;16.52;100.00
55424;BME280;41294;42.666;23.350;2022-09-27T07:15:40;93954.25;;;16.63;100.00
55424;BME280;41294;42.666;23.350;2022-09-27T07:18:07;93959.19;;;16.77;100.00
55424;BME280;41294;42.666;23.350;2022-09-27T07:20:34;93955.31;;;16.78;100.00
55424;BME280;41294;42.666;23.350;2022-09-27T07:23:02;93943.88;;;16.83;100.00
55424;BME280;41294;42.666;23.350;2022-09-27T07:25:27;93939.63;;;16.75;100.00
55424;BME280;41294;42.666;23.350;2022-09-27T07:27:53;93946.69;;;16.91;100.00
55424;BME280;41294;42.666;23.350;2022-09-27T07:30:19;93948.06;;;16.97;100.00
55424;BME280;41294;42.666;23.350;2022-09-27T07:32:46;93931.47;;;16.91;100.00
55424;BME280;41294;42.666;23.350;2022-09-27T07:35:12;93952.66;;;16.78;100.00
55424;BME280;41294;42.666;23.350;2022-09-27T07:37:41;93953.16;;;16.95;100.00
55424;BME280;41294;42.666;23.350;2022-09-27T07:40:08;93966.69;;;16.97;100.00
55424;BME280;41294;42.666;23.350;2022-09-27T07:42:37;93960.28;;;17.06;100.00
55424;BME280;41294;42.666;23.350;2022-09-27T07:45:07;93969.19;;;17.08;100.00
55424;BME280;41294;42.666;23.350;2022-09-27T07:47:37;93977.19;;;17.08;100.00
55424;BME280;41294;42.666;23.350;2022-09-27T07:50:08;93988.25;;;17.12;100.00
55424;BME280;41294;42.666;23.350;2022-09-27T07:52:40;93989.56;;;17.24;100.00
55424;BME280;41294;42.666;23.350;2022-09-27T07:55:09;93980.34;;;17.25;100.00
55424;BME280;41294;42.666;23.350;2022-09-27T07:57:35;93980.63;;;17.22;100.00
55424;BME280;41294;42.666;23.350;2022-09-27T08:00:05;93967.84;;;17.20;100.00
55424;BME280;41294;42.666;23.350;2022-09-27T08:02:31;93959.53;;;17.11;100.00
55424;BME280;41294;42.666;23.350;2022-09-27T08:05:00;93985.38;;;17.10;100.00
55424;BME280;41294;42.666;23.350;2022-09-27T08:07:27;93952.84;;;16.80;100.00
55424;BME280;41294;42.666;23.350;2022-09-27T08:09:52;93928.03;;;16.72;100.00
55424;BME280;41294;42.666;23.350;2022-09-27T08:12:18;93927.69;;;16.81;100.00
55424;BME280;41294;42.666;23.350;2022-09-27T08:14:46;93942.66;;;16.84;100.00
55424;BME280;41294;42.666;23.350;2022-09-27T08:17:12;93931.25;;;17.08;100.00
55424;BME280;41294;42.666;23.350;2022-09-27T08:19:38;93931.88;;;16.77;100.00
55424;BME280;41294;42.666;23.350;2022-09-27T08:22:05;93946.19;;;16.92;100.00
55424;BME280;41294;42.666;23.350;2022-09-27T08:24:31;93945.25;;;17.08;100.00
55424;BME280;41294;42.666;23.350;2022-09-27T08:26:58;93971.72;;;17.19;100.00
55424;BME280;41294;42.666;23.350;2022-09-27T08:29:23;93961.97;;;17.09;100.00
55424;BME280;41294;42.666;23.350;2022-09-27T08:31:52;93947.28;;;17.02;100.00
55424;BME280;41294;42.666;23.350;2022-09-27T08:34:21;93948.16;;;17.10;100.00
55424;BME280;41294;42.666;23.350;2022-09-27T08:36:47;93934.78;;;17.16;100.00
55424;BME280;41294;42.666;23.350;2022-09-27T08:39:12;93912.44;;;17.42;100.00
55424;BME280;41294;42.666;23.350;2022-09-27T08:47:24;93908.94;;;17.97;100.00
55424;BME280;41294;42.666;23.350;2022-09-27T08:49:58;93919.69;;;18.05;100.00
55424;BME280;41294;42.666;23.350;2022-09-27T08:55:05;93926.16;;;17.78;100.00
55424;BME280;41294;42.666;23.350;2022-09-27T08:57:34;93923.56;;;17.91;100.00
55424;BME280;41294;42.666;23.350;2022-09-27T09:00:05;93918.16;;;18.09;100.00
55424;BME280;41294;42.666;23.350;2022-09-27T09:02:33;93928.50;;;18.00;100.00
55424;BME280;41294;42.666;23.350;2022-09-27T09:05:04;93910.41;;;17.80;100.00
55424;BME280;41294;42.666;23.350;2022-09-27T09:16:51;93901.13;;;18.43;100.00
55424;BME280;41294;42.666;23.350;2022-09-27T09:19:46;93897.03;;;18.55;100.00
55424;BME280;41294;42.666;23.350;2022-09-27T09:22:28;93901.72;;;18.62;100.00
55424;BME280;41294;42.666;23.350;2022-09-27T09:25:14;93903.34;;;18.65;100.00
55424;BME280;41294;42.666;23.350;2022-09-27T09:27:52;93903.97;;;18.71;100.00
55424;BME280;41294;42.666;23.350;2022-09-27T09:30:23;93894.75;;;18.72;100.00
55424;BME280;41294;42.666;23.350;2022-09-27T09:35:35;93897.81;;;18.76;100.00
55424;BME280;41294;42.666;23.350;2022-09-27T09:38:17;93887.00;;;18.17;100.00
55424;BME280;41294;42.666;23.350;2022-09-27T09:41:09;93884.66;;;18.13;100.00
55424;BME280;41294;42.666;23.350;2022-09-27T09:43:57;93889.31;;;18.65;100.00
55424;BME280;41294;42.666;23.350;2022-09-27T09:46:32;93905.41;;;18.72;100.00
55424;BME280;41294;42.666;23.350;2022-09-27T09:51:39;93909.81;;;18.70;100.00
55424;BME280;41294;42.666;23.350;2022-09-27T09:54:23;93906.72;;;18.79;100.00
55424;BME280;41294;42.666;23.350;2022-09-27T09:57:15;93889.22;;;18.70;100.00
55424;BME280;41294;42.666;23.350;2022-09-27T09:59:58;93893.81;;;18.83;100.00
55424;BME280;41294;42.666;23.350;2022-09-27T10:02:34;93897.69;;;18.95;100.00
55424;BME280;41294;42.666;23.350;2022-09-27T10:05:00;93892.97;;;19.00;100.00
55424;BME280;41294;42.666;23.350;2022-09-27T10:07:27;93885.56;;;19.06;100.00
55424;BME280;41294;42.666;23.350;2022-09-27T10:09:56;93888.44;;;19.21;100.00
55424;BME280;41294;42.666;23.350;2022-09-27T10:12:23;93894.03;;;19.31;100.00
55424;BME280;41294;42.666;23.350;2022-09-27T10:14:49;93900.72;;;19.24;100.00
55424;BME280;41294;42.666;23.350;2022-09-27T10:17:23;93897.28;;;19.37;100.00
55424;BME280;41294;42.666;23.350;2022-09-27T10:19:50;93888.25;;;19.40;100.00
55424;BME280;41294;42.666;23.350;2022-09-27T10:25:07;93853.88;;;19.36;100.00
55424;BME280;41294;42.666;23.350;2022-09-27T10:27:47;93855.44;;;19.52;100.00
55424;BME280;41294;42.666;23.350;2022-09-27T10:30:31;93871.59;;;19.67;100.00
55424;BME280;41294;42.666;23.350;2022-09-27T10:33:02;93873.81;;;19.76;100.00
55424;BME280;41294;42.666;23.350;2022-09-27T10:40:56;93880.47;;;19.62;100.00
55424;BME280;41294;42.666;23.350;2022-09-27T10:43:28;93882.69;;;19.71;100.00
55424;BME280;41294;42.666;23.350;2022-09-27T10:48:36;93868.88;;;19.80;100.00
55424;BME280;41294;42.666;23.350;2022-09-27T10:51:05;93857.63;;;20.22;100.00
55424;BME280;41294;42.666;23.350;2022-09-27T10:53:34;93832.25;;;19.68;100.00
55424;BME280;41294;42.666;23.350;2022-09-27T10:56:00;93823.59;;;19.75;100.00
55424;BME280;41294;42.666;23.350;2022-09-27T10:58:35;93823.25;;;19.98;100.00
55424;BME280;41294;42.666;23.350;2022-09-27T11:01:08;93817.00;;;20.24;100.00
55424;BME280;41294;42.666;23.350;2022-09-27T11:03:44;93819.81;;;20.54;100.00
55424;BME280;41294;42.666;23.350;2022-09-27T11:08:49;93822.94;;;19.82;100.00
55424;BME280;41294;42.666;23.350;2022-09-27T11:13:41;93822.94;;;19.82;100.00
55424;BME280;41294;42.666;23.350;2022-09-27T11:16:22;93821.25;;;20.19;100.00
55424;BME280;41294;42.666;23.350;2022-09-27T11:24:49;93803.75;;;20.46;100.00
55424;BME280;41294;42.666;23.350;2022-09-27T11:30:19;93801.47;;;20.58;100.00
55424;BME280;41294;42.666;23.350;2022-09-27T12:09:19;93741.72;;;22.56;85.04
55424;BME280;41294;42.666;23.350;2022-09-27T12:11:58;93739.69;;;22.64;84.41
55424;BME280;41294;42.666;23.350;2022-09-27T12:14:29;93727.78;;;22.58;83.39
55424;BME280;41294;42.666;23.350;2022-09-27T12:16:58;93716.75;;;22.39;84.20
55424;BME280;41294;42.666;23.350;2022-09-27T12:19:29;93733.22;;;22.75;83.37
55424;BME280;41294;42.666;23.350;2022-09-27T12:22:00;93724.25;;;22.80;80.64
55424;BME280;41294;42.666;23.350;2022-09-27T12:24:27;93716.59;;;22.69;84.38
55424;BME280;41294;42.666;23.350;2022-09-27T12:26:55;93709.34;;;23.18;81.95
55424;BME280;41294;42.666;23.350;2022-09-27T12:29:28;93690.28;;;22.99;81.62
55424;BME280;41294;42.666;23.350;2022-09-27T12:42:56;93661.63;;;22.77;81.97
55424;BME280;41294;42.666;23.350;2022-09-27T12:45:37;93662.91;;;23.01;81.77
55424;BME280;41294;42.666;23.350;2022-09-27T12:48:28;93665.94;;;23.87;78.37
55424;BME280;41294;42.666;23.350;2022-09-27T12:51:09;93657.41;;;23.81;75.20
55424;BME280;41294;42.666;23.350;2022-09-27T13:08:21;93643.28;;;23.56;73.47
55424;BME280;41294;42.666;23.350;2022-09-27T13:13:29;93655.38;;;24.32;67.45
55424;BME280;41294;42.666;23.350;2022-09-27T13:16:00;93667.22;;;23.86;67.85
55424;BME280;41294;42.666;23.350;2022-09-27T13:21:02;93662.22;;;24.60;68.09
55424;BME280;41294;42.666;23.350;2022-09-27T13:26:01;93645.81;;;24.22;65.10
55424;BME280;41294;42.666;23.350;2022-09-27T13:38:35;93627.25;;;24.43;62.79
55424;BME280;41294;42.666;23.350;2022-09-27T13:41:17;93627.25;;;24.60;64.56
55424;BME280;41294;42.666;23.350;2022-09-27T13:46:51;93651.19;;;25.27;62.86
55424;BME280;41294;42.666;23.350;2022-09-27T13:49:27;93670.09;;;25.46;63.01
55424;BME280;41294;42.666;23.350;2022-09-27T13:52:02;93674.91;;;25.48;60.24
55424;BME280;41294;42.666;23.350;2022-09-27T13:56:58;93655.72;;;25.34;62.49
55424;BME280;41294;42.666;23.350;2022-09-27T13:59:31;93648.09;;;25.40;62.36
55424;BME280;41294;42.666;23.350;2022-09-27T14:02:13;93642.72;;;25.40;65.10
55424;BME280;41294;42.666;23.350;2022-09-27T14:04:53;93639.59;;;25.53;66.12
55424;BME280;41294;42.666;23.350;2022-09-27T14:07:24;93663.75;;;25.61;66.19
55424;BME280;41294;42.666;23.350;2022-09-27T14:09:55;93644.41;;;25.45;62.82
55424;BME280;41294;42.666;23.350;2022-09-27T14:12:37;93631.94;;;25.59;60.99
55424;BME280;41294;42.666;23.350;2022-09-27T14:15:06;93628.81;;;25.63;60.08
55424;BME280;41294;42.666;23.350;2022-09-27T14:17:33;93642.03;;;25.68;63.16
55424;BME280;41294;42.666;23.350;2022-09-27T14:19:58;93628.78;;;25.34;60.23
55424;BME280;41294;42.666;23.350;2022-09-27T14:22:25;93623.63;;;25.10;65.78
55424;BME280;41294;42.666;23.350;2022-09-27T14:24:55;93629.03;;;25.19;67.15
55424;BME280;41294;42.666;23.350;2022-09-27T14:27:28;93628.03;;;25.15;68.43
55424;BME280;41294;42.666;23.350;2022-09-27T14:29:57;93634.75;;;24.97;65.06
55424;BME280;41294;42.666;23.350;2022-09-27T14:32:30;93634.38;;;24.48;69.05
55424;BME280;41294;42.666;23.350;2022-09-27T14:35:17;93616.59;;;23.75;75.05
55424;BME280;41294;42.666;23.350;2022-09-27T14:38:09;93616.72;;;23.43;77.49
55424;BME280;41294;42.666;23.350;2022-09-27T14:40:40;93624.84;;;23.36;78.09
55424;BME280;41294;42.666;23.350;2022-09-27T14:43:15;93632.50;;;23.39;78.27
55424;BME280;41294;42.666;23.350;2022-09-27T14:45:41;93628.25;;;23.20;79.06
55424;BME280;41294;42.666;23.350;2022-09-27T14:48:28;93615.75;;;23.15;79.57
55424;BME280;41294;42.666;23.350;2022-09-27T14:50:59;93623.16;;;23.07;80.61
55424;BME280;41294;42.666;23.350;2022-09-27T14:53:40;93631.31;;;22.92;80.54
55424;BME280;41294;42.666;23.350;2022-09-27T14:56:12;93631.78;;;22.73;81.60
55424;BME280;41294;42.666;23.350;2022-09-27T14:58:42;93634.41;;;22.17;85.36
55424;BME280;41294;42.666;23.350;2022-09-27T15:01:15;93650.38;;;22.00;86.47
55424;BME280;41294;42.666;23.350;2022-09-27T15:03:42;93643.66;;;21.84;86.86
55424;BME280;41294;42.666;23.350;2022-09-27T15:06:09;93625.84;;;21.50;88.90
55424;BME280;41294;42.666;23.350;2022-09-27T15:08:34;93636.03;;;21.44;89.55
55424;BME280;41294;42.666;23.350;2022-09-27T15:11:03;93684.41;;;21.53;89.05
55424;BME280;41294;42.666;23.350;2022-09-27T15:13:32;93712.81;;;21.71;88.54
55424;BME280;41294;42.666;23.350;2022-09-27T15:16:12;93741.03;;;21.64;89.23
55424;BME280;41294;42.666;23.350;2022-09-27T15:18:43;93746.56;;;21.44;88.13
55424;BME280;41294;42.666;23.350;2022-09-27T15:21:31;93730.03;;;20.73;93.54
55424;BME280;41294;42.666;23.350;2022-09-27T15:23:57;93768.00;;;20.29;97.18
55424;BME280;41294;42.666;23.350;2022-09-27T15:26:32;93808.00;;;19.86;95.13
55424;BME280;41294;42.666;23.350;2022-09-27T15:29:00;93791.16;;;19.50;96.20
55424;BME280;41294;42.666;23.350;2022-09-27T15:31:34;93768.38;;;19.29;98.22
55424;BME280;41294;42.666;23.350;2022-09-27T15:34:01;93793.06;;;19.22;97.55
55424;BME280;41294;42.666;23.350;2022-09-27T15:36:52;93772.63;;;18.91;95.73
55424;BME280;41294;42.666;23.350;2022-09-27T15:39:39;93776.84;;;18.53;100.00
55424;BME280;41294;42.666;23.350;2022-09-27T15:42:12;93771.47;;;18.33;97.55
55424;BME280;41294;42.666;23.350;2022-09-27T15:44:54;93791.66;;;18.03;99.65
55424;BME280;41294;42.666;23.350;2022-09-27T15:52:49;93751.59;;;17.69;100.00
55424;BME280;41294;42.666;23.350;2022-09-27T15:55:17;93733.25;;;17.66;100.00
55424;BME280;41294;42.666;23.350;2022-09-27T15:57:47;93763.75;;;17.78;100.00
55424;BME280;41294;42.666;23.350;2022-09-27T16:00:16;93774.63;;;17.67;100.00
55424;BME280;41294;42.666;23.350;2022-09-27T16:02:42;93784.84;;;17.63;100.00
55424;BME280;41294;42.666;23.350;2022-09-27T16:05:08;93788.59;;;17.41;100.00